createdAt,value
2019-04-03T00:01:16.295Z,14.27
2019-04-03T00:03:44.726Z,13.20
2019-04-03T00:06:13.179Z,15.37
2019-04-03T00:08:41.674Z,16.00
2019-04-03T00:11:11.289Z,17.50
2019-04-03T00:13:42.905Z,16.20
2019-04-03T00:16:11.627Z,16.93
2019-04-03T00:18:41.583Z,18.57
2019-04-03T00:21:11.885Z,17.43
2019-04-03T00:23:40.445Z,17.03
2019-04-03T00:26:08.883Z,18.63
2019-04-03T00:28:37.230Z,16.63
2019-04-03T00:31:05.690Z,18.03
2019-04-03T00:33:34.043Z,18.83
2019-04-03T00:36:02.414Z,17.20
2019-04-03T00:38:30.870Z,17.83
2019-04-03T00:41:00.221Z,17.87
2019-04-03T00:43:28.777Z,17.37
2019-04-03T00:45:57.171Z,19.27
2019-04-03T00:48:26.119Z,19.30
2019-04-03T00:50:56.481Z,19.03
2019-04-03T00:53:25.972Z,19.87
2019-04-03T00:55:56.530Z,20.00
2019-04-03T00:58:55.003Z,21.40
2019-04-03T01:01:24.729Z,20.87
2019-04-03T01:03:53.484Z,22.47
2019-04-03T01:06:22.027Z,22.63
2019-04-03T01:08:50.419Z,22.13
2019-04-03T01:11:19.093Z,24.33
2019-04-03T01:13:47.484Z,22.83
2019-04-03T01:16:23.063Z,22.23
2019-04-03T01:18:51.475Z,23.17
2019-04-03T01:21:19.906Z,24.23
2019-04-03T01:23:48.377Z,23.87
2019-04-03T01:26:16.812Z,25.03
2019-04-03T01:28:45.283Z,25.50
2019-04-03T01:31:14.891Z,23.27
2019-04-03T01:33:46.089Z,22.57
2019-04-03T01:36:13.813Z,21.43
2019-04-03T01:38:42.186Z,23.17
2019-04-03T01:41:10.637Z,24.20
2019-04-03T01:43:39.099Z,23.43
2019-04-03T01:46:08.643Z,22.57
2019-04-03T01:48:37.015Z,22.80
2019-04-03T01:51:05.452Z,22.43
2019-04-03T01:53:33.828Z,22.77
2019-04-03T01:56:04.309Z,23.67
2019-04-03T01:58:32.384Z,21.60
2019-04-03T02:01:00.852Z,21.87
2019-04-03T02:03:29.337Z,19.00
2019-04-03T02:05:57.892Z,19.50
2019-04-03T02:08:26.531Z,19.07
2019-04-03T02:10:55.097Z,19.03
2019-04-03T02:13:23.633Z,18.13
2019-04-03T02:15:52.555Z,18.17
2019-04-03T02:18:21.494Z,16.30
2019-04-03T02:20:49.864Z,15.83
2019-04-03T02:23:20.364Z,15.97
2019-04-03T02:25:48.724Z,17.17
2019-04-03T02:28:17.093Z,16.63
2019-04-03T02:30:47.132Z,14.83
2019-04-03T02:33:15.734Z,15.90
2019-04-03T02:35:44.283Z,15.20
2019-04-03T02:38:12.652Z,15.87
2019-04-03T02:40:41.377Z,14.80
2019-04-03T02:43:13.451Z,14.57
2019-04-03T02:45:40.632Z,13.90
2019-04-03T02:48:09.123Z,15.77
2019-04-03T02:50:37.753Z,15.23
2019-04-03T02:53:06.876Z,16.30
2019-04-03T02:55:39.317Z,14.07
2019-04-03T02:58:05.532Z,14.50
2019-04-03T03:00:34.049Z,14.93
2019-04-03T03:03:02.853Z,15.73
2019-04-03T03:05:31.404Z,17.07
2019-04-03T03:07:59.887Z,16.63
2019-04-03T03:10:30.909Z,16.00
2019-04-03T03:13:01.065Z,15.97
2019-04-03T03:15:29.543Z,16.30
2019-04-03T03:17:58.394Z,14.17
2019-04-03T03:20:28.756Z,14.63
2019-04-03T03:22:57.472Z,13.13
2019-04-03T03:25:25.996Z,11.77
2019-04-03T03:27:54.475Z,10.50
2019-04-03T03:30:41.187Z,9.57
2019-04-03T03:33:10.142Z,10.17
2019-04-03T03:35:30.605Z,9.73
2019-04-03T03:37:54.151Z,9.77
2019-04-03T03:40:22.767Z,9.83
2019-04-03T03:42:51.370Z,9.90
2019-04-03T03:45:21.069Z,10.20
2019-04-03T03:47:51.057Z,9.90
2019-04-03T03:50:25.114Z,9.57
2019-04-03T03:52:54.521Z,9.07
2019-04-03T03:55:25.504Z,9.20
2019-04-03T03:57:54.097Z,9.37
2019-04-03T04:00:23.363Z,9.33
2019-04-03T04:02:53.090Z,9.10
2019-04-03T04:05:22.948Z,8.47
2019-04-03T04:07:52.015Z,8.83
2019-04-03T04:10:23.910Z,9.37
2019-04-03T04:12:51.824Z,8.40
2019-04-03T04:15:20.302Z,9.33
2019-04-03T04:17:51.121Z,8.50
2019-04-03T04:20:26.283Z,10.00
2019-04-03T04:22:55.098Z,9.53
2019-04-03T04:25:23.730Z,9.30
2019-04-03T04:27:52.358Z,10.00
2019-04-03T04:30:20.910Z,9.77
2019-04-03T04:32:49.376Z,10.60
2019-04-03T04:35:20.694Z,10.67
2019-04-03T04:37:48.219Z,10.17
2019-04-03T04:40:16.591Z,10.13
2019-04-03T04:42:45.072Z,11.00
2019-04-03T04:45:13.654Z,10.17
2019-04-03T04:47:42.018Z,10.70
2019-04-03T04:50:10.721Z,10.80
2019-04-03T04:52:41.588Z,11.03
2019-04-03T04:55:10.055Z,9.83
2019-04-03T04:57:40.236Z,10.37
2019-04-03T05:00:09.840Z,10.37
2019-04-03T05:02:38.212Z,10.70
2019-04-03T05:05:09.062Z,11.37
2019-04-03T05:07:41.964Z,11.13
2019-04-03T05:10:10.438Z,10.63
2019-04-03T05:12:40.451Z,11.40
2019-04-03T05:15:09.828Z,11.43
2019-04-03T05:17:38.357Z,11.63
2019-04-03T05:20:07.008Z,11.13
2019-04-03T05:22:35.454Z,13.10
2019-04-03T05:25:04.043Z,13.18
2019-04-03T05:27:34.423Z,12.53
2019-04-03T05:30:05.528Z,10.90
2019-04-03T05:32:32.769Z,11.70
2019-04-03T05:35:01.172Z,11.57
2019-04-03T05:37:29.607Z,11.93
2019-04-03T05:39:57.979Z,12.17
2019-04-03T05:42:26.982Z,11.37
2019-04-03T05:44:56.505Z,11.40
2019-04-03T05:47:25.028Z,12.30
2019-04-03T05:49:55.601Z,14.17
2019-04-03T05:52:23.652Z,14.17
2019-04-03T05:54:52.358Z,13.93
2019-04-03T05:57:20.815Z,14.20
2019-04-03T05:59:59.796Z,14.77
2019-04-03T06:02:20.961Z,14.83
2019-04-03T06:04:49.544Z,16.27
2019-04-03T06:07:18.661Z,15.73
2019-04-03T06:09:47.315Z,16.17
2019-04-03T06:12:18.253Z,15.03
2019-04-03T06:14:45.826Z,16.00
2019-04-03T06:17:14.393Z,16.70
2019-04-03T06:19:43.083Z,16.50
2019-04-03T06:22:11.866Z,16.73
2019-04-03T06:24:40.582Z,15.97
2019-04-03T06:27:10.068Z,16.73
2019-04-03T06:29:38.939Z,18.57
2019-04-03T06:32:07.464Z,18.13
2019-04-03T06:34:38.431Z,17.67
2019-04-03T06:37:06.043Z,17.43
2019-04-03T06:39:34.809Z,17.57
2019-04-03T06:42:03.407Z,17.77
2019-04-03T06:44:31.865Z,17.50
2019-04-03T06:47:00.872Z,16.97
2019-04-03T06:49:30.099Z,17.60
2019-04-03T06:51:58.601Z,17.70
2019-04-03T06:54:27.127Z,19.23
2019-04-03T06:56:55.543Z,18.80
2019-04-03T06:59:23.948Z,18.20
2019-04-03T07:01:53.274Z,17.93
2019-04-03T07:04:22.046Z,18.37
2019-04-03T07:06:50.612Z,19.23
2019-04-03T07:09:24.325Z,19.37
2019-04-03T07:11:49.320Z,17.70
2019-04-03T07:14:17.973Z,17.37
2019-04-03T07:16:46.584Z,18.07
2019-04-03T07:19:15.144Z,19.33
2019-04-03T07:21:43.614Z,19.43
2019-04-03T07:24:12.221Z,20.83
2019-04-03T07:26:40.735Z,19.10
2019-04-03T07:29:11.675Z,19.50
2019-04-03T07:31:39.325Z,20.40
2019-04-03T07:34:08.155Z,20.93
2019-04-03T07:36:36.687Z,20.07
2019-04-03T07:39:06.355Z,20.90
2019-04-03T07:41:34.859Z,22.00
2019-04-03T07:44:03.347Z,22.40
2019-04-03T07:46:33.245Z,22.63
2019-04-03T07:49:02.043Z,21.37
2019-04-03T07:51:30.553Z,20.30
2019-04-03T07:53:59.212Z,21.33
2019-04-03T07:56:27.789Z,20.47
2019-04-03T07:58:56.324Z,20.63
2019-04-03T08:01:24.820Z,21.17
2019-04-03T08:03:53.429Z,19.70
2019-04-03T08:06:22.352Z,20.00
2019-04-03T08:09:05.375Z,20.13
2019-04-03T08:11:21.217Z,20.10
2019-04-03T08:13:49.608Z,18.83
2019-04-03T08:16:18.085Z,18.67
2019-04-03T08:18:46.586Z,18.20
2019-04-03T08:21:15.072Z,19.60
2019-04-03T08:23:43.917Z,19.57
2019-04-03T08:26:12.687Z,18.33
2019-04-03T08:28:41.124Z,16.00
2019-04-03T08:31:11.570Z,17.97
2019-04-03T08:33:39.832Z,19.20
2019-04-03T08:36:08.317Z,21.37
2019-04-03T08:38:36.888Z,21.80
2019-04-03T08:41:05.577Z,23.77
2019-04-03T08:43:41.376Z,23.37
2019-04-03T08:46:10.934Z,23.63
2019-04-03T08:48:39.752Z,22.27
2019-04-03T08:51:08.318Z,25.00
2019-04-03T08:53:39.612Z,22.27
2019-04-03T08:56:07.265Z,22.53
2019-04-03T08:58:35.850Z,20.57
2019-04-03T09:01:05.324Z,20.67
2019-04-03T09:03:34.271Z,19.40
2019-04-03T09:06:02.795Z,19.27
2019-04-03T09:08:31.372Z,19.90
2019-04-03T09:10:59.842Z,18.70
2019-04-03T09:13:28.255Z,20.57
2019-04-03T09:15:58.715Z,17.90
2019-04-03T09:18:29.792Z,19.40
2019-04-03T09:20:57.184Z,19.73
2019-04-03T09:23:25.969Z,18.07
2019-04-03T09:25:54.446Z,21.47
2019-04-03T09:28:22.991Z,18.70
2019-04-03T09:30:53.963Z,21.17
2019-04-03T09:33:24.567Z,22.40
2019-04-03T09:35:52.109Z,24.93
2019-04-03T09:38:20.925Z,27.73
2019-04-03T09:40:49.609Z,25.30
2019-04-03T09:43:18.153Z,25.53
2019-04-03T09:45:48.293Z,24.87
2019-04-03T09:48:16.778Z,24.77
2019-04-03T09:50:46.914Z,28.10
2019-04-03T09:53:18.206Z,26.17
2019-04-03T09:55:47.833Z,25.77
2019-04-03T09:58:16.512Z,24.70
2019-04-03T10:00:45.505Z,23.63
2019-04-03T10:03:14.095Z,25.63
2019-04-03T10:05:42.959Z,23.47
2019-04-03T10:08:11.455Z,24.10
2019-04-03T10:10:40.222Z,24.80
2019-04-03T10:13:08.855Z,24.70
2019-04-03T10:15:37.403Z,25.37
2019-04-03T10:18:06.942Z,24.33
2019-04-03T10:20:36.166Z,26.30
2019-04-03T10:23:04.571Z,25.30
2019-04-03T10:25:33.052Z,27.07
2019-04-03T10:28:01.587Z,27.73
2019-04-03T10:30:30.010Z,28.30
2019-04-03T10:32:59.509Z,27.60
2019-04-03T10:35:28.631Z,26.43
2019-04-03T10:37:57.079Z,27.67
2019-04-03T10:40:25.525Z,28.10
2019-04-03T10:42:54.254Z,29.63
2019-04-03T10:45:22.659Z,30.80
2019-04-03T10:47:51.086Z,29.00
2019-04-03T10:50:19.586Z,28.90
2019-04-03T10:52:49.298Z,27.77
2019-04-03T10:55:18.211Z,26.23
2019-04-03T10:57:46.703Z,25.20
2019-04-03T11:00:15.528Z,19.93
2019-04-03T11:02:44.132Z,19.07
2019-04-03T11:05:13.134Z,20.33
2019-04-03T11:07:41.612Z,19.83
2019-04-03T11:10:11.088Z,19.37
2019-04-03T11:12:39.531Z,18.67
2019-04-03T11:15:10.799Z,17.87
2019-04-03T11:17:38.675Z,17.80
2019-04-03T11:20:09.660Z,17.47
2019-04-03T11:22:42.756Z,15.97
2019-04-03T11:25:08.213Z,17.80
2019-04-03T11:27:45.665Z,17.00
2019-04-03T11:30:10.998Z,16.77
2019-04-03T11:32:37.578Z,16.10
2019-04-03T11:35:06.169Z,15.80
2019-04-03T11:37:34.502Z,14.37
2019-04-03T11:40:05.441Z,15.50
2019-04-03T11:42:33.318Z,14.43
2019-04-03T11:45:04.615Z,14.03
2019-04-03T11:47:32.251Z,13.50
2019-04-03T11:50:01.073Z,10.90
2019-04-03T11:52:32.560Z,12.03
2019-04-03T11:55:05.703Z,12.07
2019-04-03T11:57:34.158Z,13.27
2019-04-03T12:00:03.239Z,13.10
2019-04-03T12:02:31.773Z,11.77
2019-04-03T12:05:00.151Z,10.97
2019-04-03T12:07:28.594Z,11.10
2019-04-03T12:09:57.245Z,7.33
2019-04-03T12:12:25.961Z,6.00
2019-04-03T12:14:54.759Z,6.20
2019-04-03T12:17:23.139Z,6.40
2019-04-03T12:19:51.578Z,5.67
2019-04-03T12:22:21.985Z,5.33
2019-04-03T12:24:51.302Z,5.30
2019-04-03T12:27:19.921Z,4.90
2019-04-03T12:29:48.625Z,4.40
2019-04-03T12:32:17.220Z,5.10
2019-04-03T12:34:45.550Z,4.93
2019-04-03T12:37:13.911Z,4.80
2019-04-03T12:39:42.332Z,4.63
2019-04-03T12:42:10.912Z,4.17
2019-04-03T12:44:39.318Z,4.17
2019-04-03T12:47:12.810Z,5.13
2019-04-03T12:49:38.040Z,5.53
2019-04-03T12:52:06.643Z,6.07
2019-04-03T12:54:35.063Z,6.37
2019-04-03T12:57:03.519Z,5.97
2019-04-03T12:59:31.867Z,5.90
2019-04-03T13:02:00.563Z,5.80
2019-04-03T13:04:31.167Z,5.37
2019-04-03T13:06:59.213Z,5.13
2019-04-03T13:09:27.732Z,4.90
2019-04-03T13:11:56.252Z,5.40
2019-04-03T13:14:27.008Z,5.13
2019-04-03T13:16:54.905Z,5.30
2019-04-03T13:19:24.462Z,4.53
2019-04-03T13:21:53.733Z,3.93
2019-04-03T13:24:22.718Z,3.60
2019-04-03T13:26:51.374Z,3.40
2019-04-03T13:29:21.656Z,2.67
2019-04-03T13:31:51.700Z,2.60
2019-04-03T13:34:20.222Z,2.90
2019-04-03T13:36:51.380Z,2.80
2019-04-03T13:39:19.932Z,2.93
2019-04-03T13:41:48.516Z,2.83
2019-04-03T13:44:16.970Z,2.63
2019-04-03T13:46:47.553Z,2.90
2019-04-03T13:49:18.067Z,2.67
2019-04-03T13:51:46.386Z,3.07
2019-04-03T13:54:15.279Z,3.43
2019-04-03T13:56:43.970Z,3.33
2019-04-03T13:59:12.446Z,2.70
2019-04-03T14:01:41.716Z,3.20
2019-04-03T14:04:10.613Z,3.07
2019-04-03T14:06:39.419Z,3.10
2019-04-03T14:09:07.961Z,3.03
2019-04-03T14:11:36.527Z,3.37
2019-04-03T14:14:05.472Z,3.30
2019-04-03T14:16:35.542Z,3.43
2019-04-03T14:19:04.142Z,3.13
2019-04-03T14:21:35.254Z,3.40
2019-04-03T14:24:02.795Z,2.80
2019-04-03T14:26:31.135Z,3.17
2019-04-03T14:28:59.590Z,3.13
2019-04-03T14:31:34.815Z,3.17
2019-04-03T14:33:58.466Z,3.27
2019-04-03T14:36:27.905Z,2.73
2019-04-03T14:38:56.314Z,2.80
2019-04-03T14:41:24.681Z,2.37
2019-04-03T14:43:53.038Z,2.53
2019-04-03T14:46:21.563Z,2.90
2019-04-03T14:48:50.488Z,2.60
2019-04-03T14:51:19.304Z,2.20
2019-04-03T14:53:48.211Z,2.53
2019-04-03T14:56:16.603Z,3.03
2019-04-03T14:58:45.049Z,2.90
2019-04-03T15:01:13.481Z,2.80
2019-04-03T15:03:42.390Z,2.47
2019-04-03T15:06:12.306Z,2.43
2019-04-03T15:08:41.092Z,2.80
2019-04-03T15:11:09.939Z,2.73
2019-04-03T15:13:38.796Z,2.50
2019-04-03T15:16:07.691Z,2.40
2019-04-03T15:18:36.314Z,2.77
2019-04-03T15:21:04.667Z,2.80
2019-04-03T15:23:35.720Z,2.67
2019-04-03T15:26:03.361Z,2.60
2019-04-03T15:28:32.386Z,2.43
2019-04-03T15:31:00.960Z,2.47
2019-04-03T15:33:29.555Z,2.77
2019-04-03T15:35:57.875Z,2.83
2019-04-03T15:38:26.650Z,2.80
2019-04-03T15:40:57.220Z,2.67
2019-04-03T15:43:25.649Z,2.77
2019-04-03T15:45:56.368Z,3.07
2019-04-03T15:48:24.418Z,3.30
2019-04-03T15:50:53.300Z,2.90
2019-04-03T15:53:23.700Z,2.63
2019-04-03T15:55:52.308Z,3.30
2019-04-03T15:58:20.872Z,2.90
2019-04-03T16:00:49.488Z,2.80
2019-04-03T16:03:18.797Z,2.97
2019-04-03T16:05:47.467Z,2.90
2019-04-03T16:08:16.242Z,2.27
2019-04-03T16:10:45.187Z,2.53
2019-04-03T16:13:15.829Z,3.13
2019-04-03T16:15:44.637Z,2.60
2019-04-03T16:18:13.568Z,2.33
2019-04-03T16:20:42.625Z,2.13
2019-04-03T16:23:11.094Z,2.50
2019-04-03T16:25:39.466Z,2.60
2019-04-03T16:28:07.905Z,2.80
2019-04-03T16:30:36.259Z,2.20
2019-04-03T16:33:06.277Z,2.40
2019-04-03T16:35:34.850Z,2.27
2019-04-03T16:38:03.547Z,2.83
2019-04-03T16:40:32.425Z,2.77
2019-04-03T16:43:01.476Z,2.77
2019-04-03T16:45:29.967Z,2.83
2019-04-03T16:47:58.398Z,3.03
2019-04-03T16:50:27.959Z,2.73
2019-04-03T16:52:56.676Z,2.87
2019-04-03T16:55:25.235Z,2.60
2019-04-03T16:57:55.306Z,3.60
2019-04-03T17:00:25.460Z,3.47
2019-04-03T17:02:55.885Z,3.97
2019-04-03T17:05:24.054Z,4.00
2019-04-03T17:07:54.286Z,2.60
2019-04-03T17:10:22.682Z,2.43
2019-04-03T17:12:51.109Z,2.97
2019-04-03T17:15:19.542Z,2.70
2019-04-03T17:17:47.915Z,2.73
2019-04-03T17:20:16.347Z,2.50
2019-04-03T17:22:46.597Z,3.17
2019-04-03T17:25:15.194Z,3.00
2019-04-03T17:27:54.079Z,3.03
2019-04-03T17:30:13.924Z,3.40
2019-04-03T17:32:42.498Z,3.57
2019-04-03T17:35:12.008Z,3.40
2019-04-03T17:37:41.087Z,3.13
2019-04-03T17:40:10.444Z,3.07
2019-04-03T17:42:39.912Z,3.77
2019-04-03T17:45:08.761Z,3.90
2019-04-03T17:47:37.328Z,4.10
2019-04-03T17:50:06.277Z,4.20
2019-04-03T17:52:36.383Z,3.23
2019-04-03T17:55:05.523Z,3.43
2019-04-03T17:57:33.974Z,3.60
2019-04-03T18:00:02.506Z,4.43
2019-04-03T18:02:30.918Z,4.77
2019-04-03T18:04:59.341Z,5.60
2019-04-03T18:07:28.392Z,5.27
2019-04-03T18:09:57.359Z,6.10
2019-04-03T18:12:25.725Z,6.93
2019-04-03T18:14:55.697Z,5.57
2019-04-03T18:17:24.372Z,5.67
2019-04-03T18:19:52.750Z,4.70
2019-04-03T18:22:21.311Z,2.50
2019-04-03T18:24:49.823Z,3.17
2019-04-03T18:27:18.357Z,4.23
2019-04-03T18:29:46.730Z,5.33
2019-04-03T18:32:15.532Z,5.73
2019-04-03T18:34:44.382Z,5.37
2019-04-03T18:37:12.919Z,5.20
2019-04-03T18:39:41.351Z,5.27
2019-04-03T18:42:10.906Z,4.97
2019-04-03T18:44:39.573Z,4.60
2019-04-03T18:47:07.964Z,5.40
2019-04-03T18:49:36.476Z,6.23
2019-04-03T18:52:07.711Z,6.87
2019-04-03T18:54:35.015Z,6.00
2019-04-03T18:57:03.442Z,5.83
2019-04-03T18:59:31.835Z,6.37
2019-04-03T19:02:00.231Z,6.40
2019-04-03T19:04:28.678Z,6.03
2019-04-03T19:06:57.131Z,6.93
2019-04-03T19:09:26.159Z,7.50
2019-04-03T19:12:08.031Z,8.03
2019-04-03T19:14:31.592Z,8.80
2019-04-03T19:16:59.588Z,6.37
2019-04-03T19:19:27.950Z,6.53
2019-04-03T19:21:56.438Z,6.10
2019-04-03T19:24:25.252Z,5.37
2019-04-03T19:26:53.802Z,5.67
2019-04-03T19:29:22.146Z,5.17
2019-04-03T19:31:50.619Z,5.27
2019-04-03T19:34:20.141Z,6.33
2019-04-03T19:36:49.475Z,5.83
2019-04-03T19:39:17.911Z,5.67
2019-04-03T19:41:46.346Z,7.07
2019-04-03T19:44:16.181Z,7.10
2019-04-03T19:46:44.905Z,6.57
2019-04-03T19:49:14.354Z,7.07
2019-04-03T19:51:42.820Z,6.67
2019-04-03T19:54:11.358Z,6.58
2019-04-03T19:56:39.795Z,6.33
2019-04-03T19:59:08.281Z,6.47
2019-04-03T20:01:38.671Z,5.93
2019-04-03T20:04:06.722Z,6.87
2019-04-03T20:06:35.209Z,6.87
2019-04-03T20:09:05.327Z,6.73
2019-04-03T20:11:35.981Z,7.10
2019-04-03T20:14:05.971Z,5.80
2019-04-03T20:16:34.398Z,6.17
2019-04-03T20:19:08.661Z,6.13
2019-04-03T20:21:37.050Z,5.17
2019-04-03T20:24:05.483Z,5.43
2019-04-03T20:26:33.865Z,4.40
2019-04-03T20:29:03.431Z,4.80
2019-04-03T20:31:31.866Z,5.23
2019-04-03T20:34:00.323Z,5.40
2019-04-03T20:36:28.823Z,5.53
2019-04-03T20:38:58.330Z,5.20
2019-04-03T20:41:27.989Z,5.50
2019-04-03T20:43:56.504Z,5.50
2019-04-03T20:46:26.031Z,5.80
2019-04-03T20:48:54.379Z,5.33
2019-04-03T20:51:23.023Z,5.63
2019-04-03T20:53:51.494Z,6.27
2019-04-03T20:56:20.024Z,6.57
2019-04-03T20:58:55.860Z,7.07
2019-04-03T21:01:18.602Z,6.17
2019-04-03T21:03:47.079Z,5.93
2019-04-03T21:06:15.494Z,5.63
2019-04-03T21:08:44.122Z,6.13
2019-04-03T21:11:12.567Z,6.43
2019-04-03T21:13:44.204Z,6.77
2019-04-03T21:16:12.654Z,7.43
2019-04-03T21:18:41.195Z,7.67
2019-04-03T21:21:09.659Z,8.43
2019-04-03T21:23:38.061Z,8.57
2019-04-03T21:26:07.430Z,8.57
2019-04-03T21:28:36.007Z,8.23
2019-04-03T21:31:04.471Z,10.00
2019-04-03T21:33:32.970Z,7.47
2019-04-03T21:36:01.363Z,7.70
2019-04-03T21:38:29.750Z,8.77
2019-04-03T21:40:58.181Z,8.63
2019-04-03T21:43:27.215Z,8.90
2019-04-03T21:45:56.778Z,9.60
2019-04-03T21:48:25.163Z,9.27
2019-04-03T21:50:53.511Z,8.60
2019-04-03T21:53:24.191Z,9.13
2019-04-03T21:55:52.224Z,10.40
2019-04-03T21:58:20.588Z,10.23
2019-04-03T22:01:17.775Z,9.50
2019-04-03T22:03:46.590Z,10.20
2019-04-03T22:06:15.034Z,11.77
2019-04-03T22:08:43.496Z,11.37
2019-04-03T22:11:12.107Z,11.20
2019-04-03T22:13:40.494Z,10.87
2019-04-03T22:16:09.091Z,13.67
2019-04-03T22:18:37.566Z,13.77
2019-04-03T22:21:06.098Z,13.23
2019-04-03T22:23:35.923Z,12.80
2019-04-03T22:26:04.934Z,11.37
2019-04-03T22:28:33.475Z,12.80
2019-04-03T22:31:01.907Z,11.30
2019-04-03T22:33:30.344Z,10.77
2019-04-03T22:35:58.736Z,10.77
2019-04-03T22:38:27.200Z,11.60
2019-04-03T22:40:55.584Z,11.40
2019-04-03T22:43:24.300Z,12.03
2019-04-03T22:45:52.730Z,11.67
2019-04-03T22:48:21.198Z,13.07
2019-04-03T22:50:49.639Z,11.93
2019-04-03T22:53:21.198Z,10.60
2019-04-03T22:55:49.731Z,13.27
2019-04-03T22:58:19.029Z,12.33
2019-04-03T23:00:48.323Z,11.00
2019-04-03T23:03:16.760Z,11.70
2019-04-03T23:05:47.729Z,11.67
2019-04-03T23:08:15.312Z,12.47
2019-04-03T23:10:43.759Z,12.60
2019-04-03T23:13:12.710Z,12.20
2019-04-03T23:15:41.198Z,12.63
2019-04-03T23:18:09.672Z,10.87
2019-04-03T23:20:38.138Z,11.70
2019-04-03T23:23:06.506Z,12.13
2019-04-03T23:25:34.906Z,13.33
2019-04-03T23:28:03.696Z,11.33
2019-04-03T23:30:32.126Z,12.20
2019-04-03T23:33:00.509Z,12.50
2019-04-03T23:35:28.988Z,11.77
2019-04-03T23:37:57.362Z,11.83
2019-04-03T23:40:25.834Z,12.33
2019-04-03T23:42:54.239Z,12.53
2019-04-03T23:45:23.578Z,12.40
2019-04-03T23:47:52.040Z,11.63
2019-04-03T23:50:22.002Z,12.30
2019-04-03T23:52:50.524Z,10.73
2019-04-03T23:55:18.908Z,11.27
2019-04-03T23:57:47.397Z,12.40
